sensor_id;sensor_type;location;lat;lon;timestamp;P1;P2;P0
29460;PMS7003;16428;47.836;35.106;2024-01-15T00:00:35;70.25;54.50;34.00
29460;PMS7003;16428;47.836;35.106;2024-01-15T00:03:02;69.00;52.25;34.50
29460;PMS7003;16428;47.836;35.106;2024-01-15T00:05:30;71.25;51.75;34.25
29460;PMS7003;16428;47.836;35.106;2024-01-15T00:07:57;70.00;55.75;37.50
29460;PMS7003;16428;47.836;35.106;2024-01-15T00:10:24;63.00;48.33;31.33
29460;PMS7003;16428;47.836;35.106;2024-01-15T00:12:51;69.67;55.33;36.33
29460;PMS7003;16428;47.836;35.106;2024-01-15T00:15:18;60.00;51.33;33.67
29460;PMS7003;16428;47.836;35.106;2024-01-15T00:17:45;58.67;46.67;31.67
29460;PMS7003;16428;47.836;35.106;2024-01-15T00:20:12;65.67;50.33;34.00
29460;PMS7003;16428;47.836;35.106;2024-01-15T00:22:39;73.00;55.75;37.00
29460;PMS7003;16428;47.836;35.106;2024-01-15T00:25:06;63.25;51.75;35.50
29460;PMS7003;16428;47.836;35.106;2024-01-15T00:27:34;74.00;56.50;38.50
29460;PMS7003;16428;47.836;35.106;2024-01-15T00:30:02;69.00;53.67;36.33
29460;PMS7003;16428;47.836;35.106;2024-01-15T00:32:29;67.00;42.67;29.67
29460;PMS7003;16428;47.836;35.106;2024-01-15T00:34:57;68.25;53.75;36.50
29460;PMS7003;16428;47.836;35.106;2024-01-15T00:37:24;66.00;50.50;33.50
29460;PMS7003;16428;47.836;35.106;2024-01-15T00:39:51;75.00;57.75;35.75
29460;PMS7003;16428;47.836;35.106;2024-01-15T00:42:18;67.25;52.75;34.50
29460;PMS7003;16428;47.836;35.106;2024-01-15T00:44:45;79.75;58.50;38.00
29460;PMS7003;16428;47.836;35.106;2024-01-15T00:47:12;64.00;51.00;33.00
29460;PMS7003;16428;47.836;35.106;2024-01-15T00:49:39;67.50;52.75;32.50
29460;PMS7003;16428;47.836;35.106;2024-01-15T00:52:06;72.50;58.25;39.00
29460;PMS7003;16428;47.836;35.106;2024-01-15T00:54:33;66.50;55.75;36.00
29460;PMS7003;16428;47.836;35.106;2024-01-15T00:57:00;76.75;63.00;40.75
29460;PMS7003;16428;47.836;35.106;2024-01-15T00:59:27;69.00;54.50;39.50
29460;PMS7003;16428;47.836;35.106;2024-01-15T01:01:54;70.50;53.75;33.75
29460;PMS7003;16428;47.836;35.106;2024-01-15T01:04:21;66.75;50.75;33.25
29460;PMS7003;16428;47.836;35.106;2024-01-15T01:06:49;57.00;46.25;28.00
29460;PMS7003;16428;47.836;35.106;2024-01-15T01:09:16;69.00;55.25;33.75
29460;PMS7003;16428;47.836;35.106;2024-01-15T01:11:43;68.50;52.75;33.00
29460;PMS7003;16428;47.836;35.106;2024-01-15T01:14:10;72.75;60.25;36.00
29460;PMS7003;16428;47.836;35.106;2024-01-15T01:16:37;66.00;51.50;32.75
29460;PMS7003;16428;47.836;35.106;2024-01-15T01:19:06;72.50;55.25;33.75
29460;PMS7003;16428;47.836;35.106;2024-01-15T01:21:34;72.25;56.00;34.75
29460;PMS7003;16428;47.836;35.106;2024-01-15T01:24:01;65.50;51.25;34.50
29460;PMS7003;16428;47.836;35.106;2024-01-15T01:26:29;66.25;52.50;33.50
29460;PMS7003;16428;47.836;35.106;2024-01-15T01:28:56;66.25;49.50;31.00
29460;PMS7003;16428;47.836;35.106;2024-01-15T01:31:23;62.25;49.50;31.50
29460;PMS7003;16428;47.836;35.106;2024-01-15T01:33:51;64.75;50.00;33.00
29460;PMS7003;16428;47.836;35.106;2024-01-15T01:36:18;74.25;60.50;38.00
29460;PMS7003;16428;47.836;35.106;2024-01-15T01:38:45;63.75;52.00;33.00
29460;PMS7003;16428;47.836;35.106;2024-01-15T01:41:12;65.50;50.75;33.00
29460;PMS7003;16428;47.836;35.106;2024-01-15T01:43:42;68.25;52.00;34.25
29460;PMS7003;16428;47.836;35.106;2024-01-15T01:46:10;66.25;52.00;33.75
29460;PMS7003;16428;47.836;35.106;2024-01-15T01:48:38;75.00;60.00;35.75
29460;PMS7003;16428;47.836;35.106;2024-01-15T01:51:06;72.25;56.75;36.75
29460;PMS7003;16428;47.836;35.106;2024-01-15T01:53:34;72.50;56.25;36.00
29460;PMS7003;16428;47.836;35.106;2024-01-15T01:56:03;68.50;52.50;35.50
29460;PMS7003;16428;47.836;35.106;2024-01-15T01:58:32;72.50;56.00;35.00
29460;PMS7003;16428;47.836;35.106;2024-01-15T02:01:00;75.25;60.25;38.50
29460;PMS7003;16428;47.836;35.106;2024-01-15T02:03:27;72.75;59.00;36.50
29460;PMS7003;16428;47.836;35.106;2024-01-15T02:05:59;63.25;52.75;32.50
29460;PMS7003;16428;47.836;35.106;2024-01-15T02:08:27;65.25;52.75;33.25
29460;PMS7003;16428;47.836;35.106;2024-01-15T02:10:59;68.75;53.75;34.25
29460;PMS7003;16428;47.836;35.106;2024-01-15T02:13:27;71.75;56.00;38.25
29460;PMS7003;16428;47.836;35.106;2024-01-15T02:15:56;71.25;58.25;37.00
29460;PMS7003;16428;47.836;35.106;2024-01-15T02:18:41;76.50;62.00;39.75
29460;PMS7003;16428;47.836;35.106;2024-01-15T02:21:18;82.00;63.00;39.75
29460;PMS7003;16428;47.836;35.106;2024-01-15T02:23:46;84.00;67.50;45.00
29460;PMS7003;16428;47.836;35.106;2024-01-15T02:26:15;76.25;60.75;38.50
29460;PMS7003;16428;47.836;35.106;2024-01-15T02:28:51;69.50;55.25;35.25
29460;PMS7003;16428;47.836;35.106;2024-01-15T02:31:24;75.00;60.50;37.50
29460;PMS7003;16428;47.836;35.106;2024-01-15T02:34:03;69.75;54.50;36.00
29460;PMS7003;16428;47.836;35.106;2024-01-15T02:36:34;70.50;58.75;33.50
29460;PMS7003;16428;47.836;35.106;2024-01-15T02:39:09;67.50;57.50;38.75
29460;PMS7003;16428;47.836;35.106;2024-01-15T02:41:48;67.25;51.75;33.25
29460;PMS7003;16428;47.836;35.106;2024-01-15T02:44:23;73.75;57.00;38.50
29460;PMS7003;16428;47.836;35.106;2024-01-15T02:46:53;67.25;54.25;36.50
29460;PMS7003;16428;47.836;35.106;2024-01-15T02:49:30;62.00;52.25;35.25
29460;PMS7003;16428;47.836;35.106;2024-01-15T02:51:59;67.25;55.00;35.75
29460;PMS7003;16428;47.836;35.106;2024-01-15T02:54:31;71.75;56.00;39.00
29460;PMS7003;16428;47.836;35.106;2024-01-15T02:57:01;78.25;58.75;38.00
29460;PMS7003;16428;47.836;35.106;2024-01-15T02:59:37;67.25;55.00;37.50
29460;PMS7003;16428;47.836;35.106;2024-01-15T03:02:05;67.50;51.00;32.00
29460;PMS7003;16428;47.836;35.106;2024-01-15T03:04:34;69.25;53.25;32.50
29460;PMS7003;16428;47.836;35.106;2024-01-15T03:07:11;75.75;57.75;38.00
29460;PMS7003;16428;47.836;35.106;2024-01-15T03:09:42;71.50;54.50;34.75
29460;PMS7003;16428;47.836;35.106;2024-01-15T03:12:22;62.00;49.25;31.00
29460;PMS7003;16428;47.836;35.106;2024-01-15T03:14:53;76.75;58.50;38.00
29460;PMS7003;16428;47.836;35.106;2024-01-15T03:17:47;65.75;47.50;32.50
29460;PMS7003;16428;47.836;35.106;2024-01-15T03:20:23;77.00;57.00;36.25
29460;PMS7003;16428;47.836;35.106;2024-01-15T03:23:09;70.75;57.75;37.75
29460;PMS7003;16428;47.836;35.106;2024-01-15T03:25:41;64.50;51.25;33.25
29460;PMS7003;16428;47.836;35.106;2024-01-15T03:28:15;76.75;58.75;39.25
29460;PMS7003;16428;47.836;35.106;2024-01-15T03:30:48;66.25;52.25;35.25
29460;PMS7003;16428;47.836;35.106;2024-01-15T03:33:16;66.25;52.00;33.25
29460;PMS7003;16428;47.836;35.106;2024-01-15T03:35:48;68.75;55.75;35.25
29460;PMS7003;16428;47.836;35.106;2024-01-15T03:38:20;66.50;54.75;35.50
29460;PMS7003;16428;47.836;35.106;2024-01-15T03:40:53;65.50;52.50;36.75
29460;PMS7003;16428;47.836;35.106;2024-01-15T03:43:27;75.25;58.00;38.25
29460;PMS7003;16428;47.836;35.106;2024-01-15T03:46:03;66.50;52.75;37.50
29460;PMS7003;16428;47.836;35.106;2024-01-15T03:48:36;68.25;54.00;32.75
29460;PMS7003;16428;47.836;35.106;2024-01-15T03:51:08;69.25;57.00;37.75
29460;PMS7003;16428;47.836;35.106;2024-01-15T03:53:43;63.50;52.75;35.75
29460;PMS7003;16428;47.836;35.106;2024-01-15T03:56:10;70.00;55.50;36.00
29460;PMS7003;16428;47.836;35.106;2024-01-15T03:58:53;74.25;57.25;38.50
29460;PMS7003;16428;47.836;35.106;2024-01-15T04:01:29;70.50;58.50;38.50
29460;PMS7003;16428;47.836;35.106;2024-01-15T04:04:02;65.75;52.25;34.00
29460;PMS7003;16428;47.836;35.106;2024-01-15T04:06:34;74.00;58.25;38.00
29460;PMS7003;16428;47.836;35.106;2024-01-15T04:09:08;67.25;53.75;35.75
29460;PMS7003;16428;47.836;35.106;2024-01-15T04:11:38;62.50;48.50;33.25
29460;PMS7003;16428;47.836;35.106;2024-01-15T04:14:08;74.00;56.00;39.50
29460;PMS7003;16428;47.836;35.106;2024-01-15T04:16:44;70.25;55.75;37.00
29460;PMS7003;16428;47.836;35.106;2024-01-15T04:19:12;72.25;56.25;36.00
29460;PMS7003;16428;47.836;35.106;2024-01-15T04:21:54;68.50;53.25;33.00
29460;PMS7003;16428;47.836;35.106;2024-01-15T04:24:25;56.75;46.50;27.50
29460;PMS7003;16428;47.836;35.106;2024-01-15T04:27:00;60.50;47.25;31.00
29460;PMS7003;16428;47.836;35.106;2024-01-15T04:29:39;67.75;53.25;34.25
29460;PMS7003;16428;47.836;35.106;2024-01-15T04:32:07;65.75;54.25;35.00
29460;PMS7003;16428;47.836;35.106;2024-01-15T04:34:35;62.75;50.00;31.75
29460;PMS7003;16428;47.836;35.106;2024-01-15T04:37:13;66.25;49.75;33.00
29460;PMS7003;16428;47.836;35.106;2024-01-15T04:39:43;63.50;48.50;31.00
29460;PMS7003;16428;47.836;35.106;2024-01-15T04:42:10;57.00;46.75;31.00
29460;PMS7003;16428;47.836;35.106;2024-01-15T04:44:37;71.75;50.50;33.00
29460;PMS7003;16428;47.836;35.106;2024-01-15T04:47:07;62.50;47.50;31.25
29460;PMS7003;16428;47.836;35.106;2024-01-15T04:49:38;59.75;49.50;34.50
29460;PMS7003;16428;47.836;35.106;2024-01-15T04:52:10;68.25;53.25;33.25
29460;PMS7003;16428;47.836;35.106;2024-01-15T04:54:39;71.50;58.00;36.50
29460;PMS7003;16428;47.836;35.106;2024-01-15T04:57:12;69.75;54.50;35.25
29460;PMS7003;16428;47.836;35.106;2024-01-15T04:59:39;61.00;48.00;31.50
29460;PMS7003;16428;47.836;35.106;2024-01-15T05:02:09;62.75;50.00;32.00
29460;PMS7003;16428;47.836;35.106;2024-01-15T05:04:37;67.00;51.00;32.00
29460;PMS7003;16428;47.836;35.106;2024-01-15T05:07:05;58.00;46.75;28.75
29460;PMS7003;16428;47.836;35.106;2024-01-15T05:09:38;68.75;53.75;32.75
29460;PMS7003;16428;47.836;35.106;2024-01-15T05:12:17;63.50;50.00;32.00
29460;PMS7003;16428;47.836;35.106;2024-01-15T05:15:01;60.75;47.25;31.25
29460;PMS7003;16428;47.836;35.106;2024-01-15T05:17:34;68.75;52.00;33.25
29460;PMS7003;16428;47.836;35.106;2024-01-15T05:20:04;65.25;51.50;33.50
29460;PMS7003;16428;47.836;35.106;2024-01-15T05:22:35;64.25;50.00;32.00
29460;PMS7003;16428;47.836;35.106;2024-01-15T05:25:07;62.75;49.00;31.25
29460;PMS7003;16428;47.836;35.106;2024-01-15T05:27:36;58.25;47.75;31.25
29460;PMS7003;16428;47.836;35.106;2024-01-15T05:30:06;68.25;53.25;33.50
29460;PMS7003;16428;47.836;35.106;2024-01-15T05:32:43;66.75;51.00;32.75
29460;PMS7003;16428;47.836;35.106;2024-01-15T05:35:17;64.00;51.50;33.50
29460;PMS7003;16428;47.836;35.106;2024-01-15T05:37:53;63.75;49.50;31.75
29460;PMS7003;16428;47.836;35.106;2024-01-15T05:40:21;61.50;49.50;31.00
29460;PMS7003;16428;47.836;35.106;2024-01-15T05:42:54;64.50;49.25;32.00
29460;PMS7003;16428;47.836;35.106;2024-01-15T05:45:30;64.25;50.00;32.25
29460;PMS7003;16428;47.836;35.106;2024-01-15T05:48:03;61.75;49.75;32.25
29460;PMS7003;16428;47.836;35.106;2024-01-15T05:50:33;62.00;45.50;30.50
29460;PMS7003;16428;47.836;35.106;2024-01-15T05:53:02;59.00;49.00;31.75
29460;PMS7003;16428;47.836;35.106;2024-01-15T05:55:32;56.50;43.75;28.25
29460;PMS7003;16428;47.836;35.106;2024-01-15T05:57:59;61.25;48.75;31.50
29460;PMS7003;16428;47.836;35.106;2024-01-15T06:00:43;60.00;48.75;33.00
29460;PMS7003;16428;47.836;35.106;2024-01-15T06:03:21;61.50;48.00;31.00
29460;PMS7003;16428;47.836;35.106;2024-01-15T06:05:55;60.00;46.75;31.50
29460;PMS7003;16428;47.836;35.106;2024-01-15T06:08:23;64.00;49.75;33.00
29460;PMS7003;16428;47.836;35.106;2024-01-15T06:10:53;61.75;46.25;29.75
29460;PMS7003;16428;47.836;35.106;2024-01-15T06:13:32;60.50;47.25;30.75
29460;PMS7003;16428;47.836;35.106;2024-01-15T06:15:59;65.75;49.50;34.25
29460;PMS7003;16428;47.836;35.106;2024-01-15T06:18:32;52.50;43.00;29.50
29460;PMS7003;16428;47.836;35.106;2024-01-15T06:21:05;65.50;51.50;34.75
29460;PMS7003;16428;47.836;35.106;2024-01-15T06:23:44;56.00;46.00;29.75
29460;PMS7003;16428;47.836;35.106;2024-01-15T06:26:13;65.50;52.00;35.50
29460;PMS7003;16428;47.836;35.106;2024-01-15T06:28:42;63.75;49.75;31.75
29460;PMS7003;16428;47.836;35.106;2024-01-15T06:31:09;64.75;47.25;32.25
29460;PMS7003;16428;47.836;35.106;2024-01-15T06:33:37;68.00;52.00;34.00
29460;PMS7003;16428;47.836;35.106;2024-01-15T06:36:05;68.75;53.25;36.00
29460;PMS7003;16428;47.836;35.106;2024-01-15T06:38:32;63.25;52.50;35.00
29460;PMS7003;16428;47.836;35.106;2024-01-15T06:41:00;69.75;53.50;35.50
29460;PMS7003;16428;47.836;35.106;2024-01-15T06:43:27;64.25;51.75;33.50
29460;PMS7003;16428;47.836;35.106;2024-01-15T06:45:54;64.75;52.75;34.50
29460;PMS7003;16428;47.836;35.106;2024-01-15T06:48:21;75.00;55.50;36.25
29460;PMS7003;16428;47.836;35.106;2024-01-15T06:50:49;64.50;49.75;32.75
29460;PMS7003;16428;47.836;35.106;2024-01-15T06:53:16;66.50;53.25;34.25
29460;PMS7003;16428;47.836;35.106;2024-01-15T06:55:43;65.50;52.50;36.25
29460;PMS7003;16428;47.836;35.106;2024-01-15T06:58:10;65.25;51.50;34.25
29460;PMS7003;16428;47.836;35.106;2024-01-15T07:00:38;68.00;54.50;37.25
29460;PMS7003;16428;47.836;35.106;2024-01-15T07:03:05;66.00;54.50;36.25
29460;PMS7003;16428;47.836;35.106;2024-01-15T07:05:32;67.00;51.75;33.75
29460;PMS7003;16428;47.836;35.106;2024-01-15T07:07:59;64.50;50.50;32.75
29460;PMS7003;16428;47.836;35.106;2024-01-15T07:10:26;67.50;51.50;31.75
29460;PMS7003;16428;47.836;35.106;2024-01-15T07:12:53;56.25;46.00;30.75
29460;PMS7003;16428;47.836;35.106;2024-01-15T07:15:20;64.50;50.00;34.50
29460;PMS7003;16428;47.836;35.106;2024-01-15T07:17:48;61.33;45.67;33.00
29460;PMS7003;16428;47.836;35.106;2024-01-15T07:20:15;61.00;43.00;30.00
29460;PMS7003;16428;47.836;35.106;2024-01-15T07:22:42;51.67;42.00;30.00
29460;PMS7003;16428;47.836;35.106;2024-01-15T07:25:09;59.33;45.67;30.33
29460;PMS7003;16428;47.836;35.106;2024-01-15T07:27:36;52.67;45.33;30.33
29460;PMS7003;16428;47.836;35.106;2024-01-15T07:30:03;44.00;40.00;29.00
29460;PMS7003;16428;47.836;35.106;2024-01-15T07:32:33;61.00;44.67;30.67
29460;PMS7003;16428;47.836;35.106;2024-01-15T07:35:00;49.33;42.33;28.67
29460;PMS7003;16428;47.836;35.106;2024-01-15T07:37:27;52.00;41.67;27.67
29460;PMS7003;16428;47.836;35.106;2024-01-15T07:39:55;52.33;41.33;27.00
29460;PMS7003;16428;47.836;35.106;2024-01-15T07:42:22;49.67;41.00;26.67
29460;PMS7003;16428;47.836;35.106;2024-01-15T07:44:49;53.67;38.67;27.33
29460;PMS7003;16428;47.836;35.106;2024-01-15T07:47:18;47.00;36.67;25.33
29460;PMS7003;16428;47.836;35.106;2024-01-15T07:49:45;55.67;40.00;29.00
29460;PMS7003;16428;47.836;35.106;2024-01-15T07:52:12;61.00;44.00;30.00
29460;PMS7003;16428;47.836;35.106;2024-01-15T07:54:40;49.00;34.67;25.00
29460;PMS7003;16428;47.836;35.106;2024-01-15T07:57:07;50.00;40.33;25.67
29460;PMS7003;16428;47.836;35.106;2024-01-15T07:59:35;41.33;28.33;16.67
29460;PMS7003;16428;47.836;35.106;2024-01-15T08:02:02;51.67;41.00;26.00
29460;PMS7003;16428;47.836;35.106;2024-01-15T08:04:29;47.00;34.33;25.67
29460;PMS7003;16428;47.836;35.106;2024-01-15T08:06:57;46.33;37.00;27.67
29460;PMS7003;16428;47.836;35.106;2024-01-15T08:09:25;58.33;45.33;29.00
29460;PMS7003;16428;47.836;35.106;2024-01-15T08:11:52;52.00;41.00;25.67
29460;PMS7003;16428;47.836;35.106;2024-01-15T08:14:19;63.33;45.00;30.33
29460;PMS7003;16428;47.836;35.106;2024-01-15T08:16:46;43.33;39.67;30.00
29460;PMS7003;16428;47.836;35.106;2024-01-15T08:19:13;58.33;45.33;29.33
29460;PMS7003;16428;47.836;35.106;2024-01-15T08:21:41;51.67;42.67;29.67
29460;PMS7003;16428;47.836;35.106;2024-01-15T08:24:08;54.67;41.33;29.33
29460;PMS7003;16428;47.836;35.106;2024-01-15T08:26:36;54.00;45.67;31.00
29460;PMS7003;16428;47.836;35.106;2024-01-15T08:29:03;40.67;29.00;17.67
29460;PMS7003;16428;47.836;35.106;2024-01-15T08:31:30;44.00;33.00;28.33
29460;PMS7003;16428;47.836;35.106;2024-01-15T08:33:58;42.33;33.67;20.67
29460;PMS7003;16428;47.836;35.106;2024-01-15T08:36:26;28.33;21.67;12.33
29460;PMS7003;16428;47.836;35.106;2024-01-15T08:38:53;54.33;46.67;33.00
29460;PMS7003;16428;47.836;35.106;2024-01-15T08:41:20;50.67;39.00;27.67
29460;PMS7003;16428;47.836;35.106;2024-01-15T08:43:47;42.33;32.33;22.00
29460;PMS7003;16428;47.836;35.106;2024-01-15T08:46:16;39.33;31.00;25.33
29460;PMS7003;16428;47.836;35.106;2024-01-15T08:48:44;40.00;34.50;26.00
29460;PMS7003;16428;47.836;35.106;2024-01-15T08:51:11;49.00;42.33;28.00
29460;PMS7003;16428;47.836;35.106;2024-01-15T08:53:39;46.00;42.00;29.00
29460;PMS7003;16428;47.836;35.106;2024-01-15T08:56:06;44.00;39.00;28.50
29460;PMS7003;16428;47.836;35.106;2024-01-15T08:58:33;38.75;34.25;23.00
29460;PMS7003;16428;47.836;35.106;2024-01-15T09:01:00;49.25;38.00;27.25
29460;PMS7003;16428;47.836;35.106;2024-01-15T09:03:28;42.75;36.00;26.50
29460;PMS7003;16428;47.836;35.106;2024-01-15T09:05:55;51.50;40.00;28.50
29460;PMS7003;16428;47.836;35.106;2024-01-15T09:08:22;30.75;22.75;12.75
29460;PMS7003;16428;47.836;35.106;2024-01-15T09:10:49;45.75;38.50;28.25
29460;PMS7003;16428;47.836;35.106;2024-01-15T09:13:16;57.67;40.00;26.00
29460;PMS7003;16428;47.836;35.106;2024-01-15T09:15:43;52.33;41.67;27.33
29460;PMS7003;16428;47.836;35.106;2024-01-15T09:18:11;51.67;41.00;27.00
29460;PMS7003;16428;47.836;35.106;2024-01-15T09:20:38;48.50;38.50;26.00
29460;PMS7003;16428;47.836;35.106;2024-01-15T09:23:05;53.33;43.00;29.67
29460;PMS7003;16428;47.836;35.106;2024-01-15T09:25:32;53.00;41.50;28.00
29460;PMS7003;16428;47.836;35.106;2024-01-15T09:27:59;41.25;38.75;23.75
29460;PMS7003;16428;47.836;35.106;2024-01-15T09:30:27;38.00;37.00;24.75
29460;PMS7003;16428;47.836;35.106;2024-01-15T09:32:54;40.25;32.25;25.00
29460;PMS7003;16428;47.836;35.106;2024-01-15T09:35:21;48.25;37.75;26.75
29460;PMS7003;16428;47.836;35.106;2024-01-15T09:37:51;39.50;34.25;24.25
29460;PMS7003;16428;47.836;35.106;2024-01-15T09:40:18;26.50;25.00;16.75
29460;PMS7003;16428;47.836;35.106;2024-01-15T09:42:47;41.00;36.25;24.50
29460;PMS7003;16428;47.836;35.106;2024-01-15T09:45:16;38.75;37.75;25.00
29460;PMS7003;16428;47.836;35.106;2024-01-15T09:47:43;41.00;35.00;25.00
29460;PMS7003;16428;47.836;35.106;2024-01-15T09:50:12;36.00;32.25;19.50
29460;PMS7003;16428;47.836;35.106;2024-01-15T09:52:43;42.75;35.00;25.00
29460;PMS7003;16428;47.836;35.106;2024-01-15T09:55:11;45.00;36.00;23.75
29460;PMS7003;16428;47.836;35.106;2024-01-15T09:57:39;41.75;35.75;23.50
29460;PMS7003;16428;47.836;35.106;2024-01-15T10:00:07;38.25;35.75;25.00
29460;PMS7003;16428;47.836;35.106;2024-01-15T10:02:38;27.50;22.50;16.50
29460;PMS7003;16428;47.836;35.106;2024-01-15T10:05:05;32.50;24.50;17.75
29460;PMS7003;16428;47.836;35.106;2024-01-15T10:07:34;40.25;33.75;23.75
29460;PMS7003;16428;47.836;35.106;2024-01-15T10:10:03;32.25;25.75;20.00
29460;PMS7003;16428;47.836;35.106;2024-01-15T10:12:31;32.00;23.75;19.00
29460;PMS7003;16428;47.836;35.106;2024-01-15T10:14:59;37.25;30.50;21.50
29460;PMS7003;16428;47.836;35.106;2024-01-15T10:17:26;34.25;31.25;22.75
29460;PMS7003;16428;47.836;35.106;2024-01-15T10:19:55;31.00;27.75;18.25
29460;PMS7003;16428;47.836;35.106;2024-01-15T10:22:23;39.50;32.25;25.00
29460;PMS7003;16428;47.836;35.106;2024-01-15T10:24:51;27.75;24.00;18.00
29460;PMS7003;16428;47.836;35.106;2024-01-15T10:27:18;34.50;25.50;18.25
29460;PMS7003;16428;47.836;35.106;2024-01-15T10:29:45;28.75;26.50;20.00
29460;PMS7003;16428;47.836;35.106;2024-01-15T10:32:12;29.50;25.75;17.00
29460;PMS7003;16428;47.836;35.106;2024-01-15T10:34:40;28.75;27.75;21.75
29460;PMS7003;16428;47.836;35.106;2024-01-15T10:37:09;33.00;31.25;22.50
29460;PMS7003;16428;47.836;35.106;2024-01-15T10:39:36;33.00;29.50;21.50
29460;PMS7003;16428;47.836;35.106;2024-01-15T10:42:05;31.50;26.50;19.00
29460;PMS7003;16428;47.836;35.106;2024-01-15T10:44:34;9.25;6.75;4.75
29460;PMS7003;16428;47.836;35.106;2024-01-15T10:47:02;25.75;22.00;16.75
29460;PMS7003;16428;47.836;35.106;2024-01-15T10:49:31;33.50;27.50;21.25
29460;PMS7003;16428;47.836;35.106;2024-01-15T10:52:03;30.25;22.50;16.00
29460;PMS7003;16428;47.836;35.106;2024-01-15T10:54:31;33.75;27.25;22.25
29460;PMS7003;16428;47.836;35.106;2024-01-15T10:56:59;36.75;26.00;21.25
29460;PMS7003;16428;47.836;35.106;2024-01-15T10:59:29;26.50;21.00;14.00
29460;PMS7003;16428;47.836;35.106;2024-01-15T11:01:56;34.25;28.00;21.00
29460;PMS7003;16428;47.836;35.106;2024-01-15T11:04:23;34.75;33.25;23.25
29460;PMS7003;16428;47.836;35.106;2024-01-15T11:06:54;37.25;33.75;24.50
29460;PMS7003;16428;47.836;35.106;2024-01-15T11:09:24;34.50;30.00;23.25
29460;PMS7003;16428;47.836;35.106;2024-01-15T11:12:13;40.00;36.25;25.00
29460;PMS7003;16428;47.836;35.106;2024-01-15T11:14:41;44.75;38.50;24.00
29460;PMS7003;16428;47.836;35.106;2024-01-15T11:17:12;26.75;24.75;19.00
29460;PMS7003;16428;47.836;35.106;2024-01-15T11:22:08;28.00;26.75;19.25
29460;PMS7003;16428;47.836;35.106;2024-01-15T11:24:37;20.00;14.75;11.25
29460;PMS7003;16428;47.836;35.106;2024-01-15T11:27:09;30.75;29.75;22.00
29460;PMS7003;16428;47.836;35.106;2024-01-15T11:29:36;26.50;24.50;18.00
29460;PMS7003;16428;47.836;35.106;2024-01-15T11:32:04;26.50;26.50;19.75
29460;PMS7003;16428;47.836;35.106;2024-01-15T11:37:26;24.00;23.00;15.00
29460;PMS7003;16428;47.836;35.106;2024-01-15T11:39:55;29.75;26.75;20.25
29460;PMS7003;16428;47.836;35.106;2024-01-15T11:42:28;28.00;23.00;18.50
29460;PMS7003;16428;47.836;35.106;2024-01-15T11:44:55;22.25;19.00;15.00
29460;PMS7003;16428;47.836;35.106;2024-01-15T11:47:38;22.00;21.50;14.75
29460;PMS7003;16428;47.836;35.106;2024-01-15T11:50:08;25.25;24.50;19.00
29460;PMS7003;16428;47.836;35.106;2024-01-15T11:52:38;27.00;23.75;18.25
29460;PMS7003;16428;47.836;35.106;2024-01-15T11:55:16;27.00;26.25;18.75
29460;PMS7003;16428;47.836;35.106;2024-01-15T11:57:46;29.50;24.50;18.75
29460;PMS7003;16428;47.836;35.106;2024-01-15T12:00:18;26.25;23.50;19.00
29460;PMS7003;16428;47.836;35.106;2024-01-15T12:02:46;24.00;21.25;17.00
29460;PMS7003;16428;47.836;35.106;2024-01-15T12:05:15;24.00;22.75;17.50
29460;PMS7003;16428;47.836;35.106;2024-01-15T12:07:44;32.75;28.25;19.75
29460;PMS7003;16428;47.836;35.106;2024-01-15T12:12:58;27.50;23.00;18.00
29460;PMS7003;16428;47.836;35.106;2024-01-15T12:15:28;21.75;21.75;17.25
29460;PMS7003;16428;47.836;35.106;2024-01-15T12:17:58;26.25;24.25;17.75
29460;PMS7003;16428;47.836;35.106;2024-01-15T12:20:26;21.50;21.50;16.50
29460;PMS7003;16428;47.836;35.106;2024-01-15T12:22:54;32.25;28.75;20.50
29460;PMS7003;16428;47.836;35.106;2024-01-15T12:25:32;26.25;23.00;16.25
29460;PMS7003;16428;47.836;35.106;2024-01-15T12:28:01;32.50;24.25;18.50
29460;PMS7003;16428;47.836;35.106;2024-01-15T12:30:30;32.50;20.25;19.00
29460;PMS7003;16428;47.836;35.106;2024-01-15T12:33:04;27.00;23.25;18.00
29460;PMS7003;16428;47.836;35.106;2024-01-15T12:35:35;33.25;27.00;19.00
29460;PMS7003;16428;47.836;35.106;2024-01-15T12:38:02;30.00;28.00;20.75
29460;PMS7003;16428;47.836;35.106;2024-01-15T12:40:31;28.25;24.00;18.50
29460;PMS7003;16428;47.836;35.106;2024-01-15T12:43:02;27.50;24.25;18.50
29460;PMS7003;16428;47.836;35.106;2024-01-15T12:45:29;23.75;23.00;17.00
29460;PMS7003;16428;47.836;35.106;2024-01-15T12:47:58;19.75;17.25;12.75
29460;PMS7003;16428;47.836;35.106;2024-01-15T12:50:25;23.50;21.75;17.75
29460;PMS7003;16428;47.836;35.106;2024-01-15T12:52:53;34.00;25.00;19.25
29460;PMS7003;16428;47.836;35.106;2024-01-15T12:55:20;31.25;25.75;17.75
29460;PMS7003;16428;47.836;35.106;2024-01-15T12:57:47;29.75;24.00;18.75
29460;PMS7003;16428;47.836;35.106;2024-01-15T13:00:14;27.00;23.25;18.25
29460;PMS7003;16428;47.836;35.106;2024-01-15T13:02:42;28.00;26.00;18.25
29460;PMS7003;16428;47.836;35.106;2024-01-15T13:05:11;29.50;23.25;17.50
29460;PMS7003;16428;47.836;35.106;2024-01-15T13:07:41;29.00;24.50;17.75
29460;PMS7003;16428;47.836;35.106;2024-01-15T13:10:09;27.25;23.25;17.75
29460;PMS7003;16428;47.836;35.106;2024-01-15T13:12:37;37.00;29.50;20.50
29460;PMS7003;16428;47.836;35.106;2024-01-15T13:15:05;24.75;24.75;19.25
29460;PMS7003;16428;47.836;35.106;2024-01-15T13:17:33;39.50;32.75;24.00
29460;PMS7003;16428;47.836;35.106;2024-01-15T13:20:00;32.50;30.00;20.75
29460;PMS7003;16428;47.836;35.106;2024-01-15T13:22:27;26.75;23.50;17.00
29460;PMS7003;16428;47.836;35.106;2024-01-15T13:24:59;25.25;21.25;17.25
29460;PMS7003;16428;47.836;35.106;2024-01-15T13:27:27;28.25;26.75;19.75
29460;PMS7003;16428;47.836;35.106;2024-01-15T13:29:55;43.50;25.75;16.75
29460;PMS7003;16428;47.836;35.106;2024-01-15T13:32:28;35.75;26.25;20.00
29460;PMS7003;16428;47.836;35.106;2024-01-15T13:34:56;39.00;36.00;24.00
29460;PMS7003;16428;47.836;35.106;2024-01-15T13:37:24;31.50;27.50;22.00
29460;PMS7003;16428;47.836;35.106;2024-01-15T13:39:52;39.50;29.00;20.25
29460;PMS7003;16428;47.836;35.106;2024-01-15T13:42:20;39.25;29.50;20.50
29460;PMS7003;16428;47.836;35.106;2024-01-15T13:44:50;42.00;31.25;22.00
29460;PMS7003;16428;47.836;35.106;2024-01-15T13:47:18;39.00;32.50;24.00
29460;PMS7003;16428;47.836;35.106;2024-01-15T13:49:45;35.75;29.50;22.25
29460;PMS7003;16428;47.836;35.106;2024-01-15T13:52:12;34.25;34.25;24.00
29460;PMS7003;16428;47.836;35.106;2024-01-15T13:54:41;37.00;30.25;24.50